sensor_id;sensor_type;location;lat;lon;timestamp;P1;durP1;ratioP1;P2;durP2;ratioP2
30382;SDS011;17179;48.022;7.858;2022-08-30T00:00:09;7.13;;;6.38;;
30382;SDS011;17179;48.022;7.858;2022-08-30T00:02:56;7.07;;;5.82;;
30382;SDS011;17179;48.022;7.858;2022-08-30T00:05:22;11.75;;;6.07;;
30382;SDS011;17179;48.022;7.858;2022-08-30T00:07:48;7.43;;;6.80;;
30382;SDS011;17179;48.022;7.858;2022-08-30T00:10:14;6.50;;;5.90;;
30382;SDS011;17179;48.022;7.858;2022-08-30T00:12:39;11.52;;;5.82;;
30382;SDS011;17179;48.022;7.858;2022-08-30T00:15:06;9.82;;;6.75;;
30382;SDS011;17179;48.022;7.858;2022-08-30T00:17:33;10.25;;;6.70;;
30382;SDS011;17179;48.022;7.858;2022-08-30T00:19:58;8.88;;;6.38;;
30382;SDS011;17179;48.022;7.858;2022-08-30T00:22:24;10.63;;;6.07;;
30382;SDS011;17179;48.022;7.858;2022-08-30T00:24:49;8.20;;;5.88;;
30382;SDS011;17179;48.022;7.858;2022-08-30T00:27:14;7.30;;;5.70;;
30382;SDS011;17179;48.022;7.858;2022-08-30T00:29:40;10.15;;;5.95;;
30382;SDS011;17179;48.022;7.858;2022-08-30T00:32:05;9.55;;;6.38;;
30382;SDS011;17179;48.022;7.858;2022-08-30T00:34:31;12.02;;;6.85;;
30382;SDS011;17179;48.022;7.858;2022-08-30T00:36:57;9.85;;;5.90;;
30382;SDS011;17179;48.022;7.858;2022-08-30T00:39:23;9.48;;;5.72;;
30382;SDS011;17179;48.022;7.858;2022-08-30T00:41:49;7.78;;;6.10;;
30382;SDS011;17179;48.022;7.858;2022-08-30T00:44:15;7.63;;;6.10;;
30382;SDS011;17179;48.022;7.858;2022-08-30T00:46:40;6.28;;;5.68;;
30382;SDS011;17179;48.022;7.858;2022-08-30T00:49:08;7.20;;;5.78;;
30382;SDS011;17179;48.022;7.858;2022-08-30T00:51:37;9.43;;;6.03;;
30382;SDS011;17179;48.022;7.858;2022-08-30T00:54:04;9.82;;;5.93;;
30382;SDS011;17179;48.022;7.858;2022-08-30T00:56:31;11.07;;;6.35;;
30382;SDS011;17179;48.022;7.858;2022-08-30T00:59:01;6.93;;;6.22;;
30382;SDS011;17179;48.022;7.858;2022-08-30T01:01:28;6.78;;;5.57;;
30382;SDS011;17179;48.022;7.858;2022-08-30T01:03:55;9.20;;;6.60;;
30382;SDS011;17179;48.022;7.858;2022-08-30T01:06:21;6.60;;;5.78;;
30382;SDS011;17179;48.022;7.858;2022-08-30T01:08:47;15.90;;;6.18;;
30382;SDS011;17179;48.022;7.858;2022-08-30T01:11:14;7.85;;;5.95;;
30382;SDS011;17179;48.022;7.858;2022-08-30T01:13:42;7.53;;;5.55;;
30382;SDS011;17179;48.022;7.858;2022-08-30T01:16:11;7.38;;;6.57;;
30382;SDS011;17179;48.022;7.858;2022-08-30T01:18:37;6.32;;;5.20;;
30382;SDS011;17179;48.022;7.858;2022-08-30T01:23:31;7.45;;;5.55;;
30382;SDS011;17179;48.022;7.858;2022-08-30T01:26:00;14.55;;;5.72;;
30382;SDS011;17179;48.022;7.858;2022-08-30T01:28:27;5.78;;;5.20;;
30382;SDS011;17179;48.022;7.858;2022-08-30T01:30:53;5.03;;;4.72;;
30382;SDS011;17179;48.022;7.858;2022-08-30T01:33:19;8.65;;;5.55;;
30382;SDS011;17179;48.022;7.858;2022-08-30T01:35:47;12.18;;;5.68;;
30382;SDS011;17179;48.022;7.858;2022-08-30T01:38:13;12.07;;;5.00;;
30382;SDS011;17179;48.022;7.858;2022-08-30T01:40:41;7.70;;;5.30;;
30382;SDS011;17179;48.022;7.858;2022-08-30T01:43:06;6.38;;;5.05;;
30382;SDS011;17179;48.022;7.858;2022-08-30T01:45:32;10.15;;;5.95;;
30382;SDS011;17179;48.022;7.858;2022-08-30T01:47:57;12.77;;;6.03;;
30382;SDS011;17179;48.022;7.858;2022-08-30T01:50:22;9.50;;;6.10;;
30382;SDS011;17179;48.022;7.858;2022-08-30T01:52:48;9.40;;;6.28;;
30382;SDS011;17179;48.022;7.858;2022-08-30T01:55:13;13.35;;;5.70;;
30382;SDS011;17179;48.022;7.858;2022-08-30T01:57:39;10.40;;;5.53;;
30382;SDS011;17179;48.022;7.858;2022-08-30T02:00:06;5.63;;;5.13;;
30382;SDS011;17179;48.022;7.858;2022-08-30T02:02:33;7.38;;;5.13;;
30382;SDS011;17179;48.022;7.858;2022-08-30T02:04:58;8.85;;;5.32;;
30382;SDS011;17179;48.022;7.858;2022-08-30T02:07:24;11.55;;;5.85;;
30382;SDS011;17179;48.022;7.858;2022-08-30T02:09:50;5.80;;;5.20;;
30382;SDS011;17179;48.022;7.858;2022-08-30T02:12:16;6.20;;;5.63;;
30382;SDS011;17179;48.022;7.858;2022-08-30T02:14:42;5.10;;;4.70;;
30382;SDS011;17179;48.022;7.858;2022-08-30T02:17:08;11.55;;;6.13;;
30382;SDS011;17179;48.022;7.858;2022-08-30T02:19:34;6.80;;;5.60;;
30382;SDS011;17179;48.022;7.858;2022-08-30T02:22:00;6.60;;;5.80;;
30382;SDS011;17179;48.022;7.858;2022-08-30T02:24:26;5.55;;;5.10;;
30382;SDS011;17179;48.022;7.858;2022-08-30T02:26:51;6.53;;;5.75;;
30382;SDS011;17179;48.022;7.858;2022-08-30T02:29:17;8.20;;;4.75;;
30382;SDS011;17179;48.022;7.858;2022-08-30T02:31:43;10.93;;;5.90;;
30382;SDS011;17179;48.022;7.858;2022-08-30T02:34:08;7.45;;;5.10;;
30382;SDS011;17179;48.022;7.858;2022-08-30T02:36:34;5.50;;;4.93;;
30382;SDS011;17179;48.022;7.858;2022-08-30T02:38:59;6.45;;;5.65;;
30382;SDS011;17179;48.022;7.858;2022-08-30T02:41:25;9.52;;;5.43;;
30382;SDS011;17179;48.022;7.858;2022-08-30T02:43:50;6.18;;;5.05;;
30382;SDS011;17179;48.022;7.858;2022-08-30T02:46:16;6.97;;;5.55;;
30382;SDS011;17179;48.022;7.858;2022-08-30T02:48:42;6.45;;;5.75;;
30382;SDS011;17179;48.022;7.858;2022-08-30T02:51:09;7.72;;;5.30;;
30382;SDS011;17179;48.022;7.858;2022-08-30T02:53:36;5.25;;;4.85;;
30382;SDS011;17179;48.022;7.858;2022-08-30T02:56:02;8.07;;;5.28;;
30382;SDS011;17179;48.022;7.858;2022-08-30T02:58:27;11.32;;;5.90;;
30382;SDS011;17179;48.022;7.858;2022-08-30T03:00:53;10.23;;;5.75;;
30382;SDS011;17179;48.022;7.858;2022-08-30T03:03:18;9.93;;;5.35;;
30382;SDS011;17179;48.022;7.858;2022-08-30T03:05:44;5.15;;;4.75;;
30382;SDS011;17179;48.022;7.858;2022-08-30T03:08:09;11.98;;;5.65;;
30382;SDS011;17179;48.022;7.858;2022-08-30T03:10:35;8.82;;;5.75;;
30382;SDS011;17179;48.022;7.858;2022-08-30T03:13:02;6.38;;;5.70;;
30382;SDS011;17179;48.022;7.858;2022-08-30T03:15:29;8.07;;;5.35;;
30382;SDS011;17179;48.022;7.858;2022-08-30T03:17:54;6.03;;;5.40;;
30382;SDS011;17179;48.022;7.858;2022-08-30T03:20:20;7.07;;;5.63;;
30382;SDS011;17179;48.022;7.858;2022-08-30T03:22:47;8.80;;;5.40;;
30382;SDS011;17179;48.022;7.858;2022-08-30T03:25:12;5.80;;;5.40;;
30382;SDS011;17179;48.022;7.858;2022-08-30T03:27:38;5.82;;;4.97;;
30382;SDS011;17179;48.022;7.858;2022-08-30T03:30:04;9.60;;;5.60;;
30382;SDS011;17179;48.022;7.858;2022-08-30T03:32:31;9.18;;;5.32;;
30382;SDS011;17179;48.022;7.858;2022-08-30T03:34:56;5.88;;;5.38;;
30382;SDS011;17179;48.022;7.858;2022-08-30T03:37:22;7.10;;;5.03;;
30382;SDS011;17179;48.022;7.858;2022-08-30T03:39:47;11.13;;;6.50;;
30382;SDS011;17179;48.022;7.858;2022-08-30T03:42:13;6.85;;;5.60;;
30382;SDS011;17179;48.022;7.858;2022-08-30T03:44:39;8.93;;;6.25;;
30382;SDS011;17179;48.022;7.858;2022-08-30T03:47:04;6.88;;;5.85;;
30382;SDS011;17179;48.022;7.858;2022-08-30T03:49:30;10.38;;;6.00;;
30382;SDS011;17179;48.022;7.858;2022-08-30T03:51:55;6.90;;;5.55;;
30382;SDS011;17179;48.022;7.858;2022-08-30T03:54:21;6.45;;;5.85;;
30382;SDS011;17179;48.022;7.858;2022-08-30T03:56:46;7.80;;;6.15;;
30382;SDS011;17179;48.022;7.858;2022-08-30T03:59:12;10.80;;;6.30;;
30382;SDS011;17179;48.022;7.858;2022-08-30T04:01:38;7.95;;;5.85;;
30382;SDS011;17179;48.022;7.858;2022-08-30T04:04:07;8.95;;;6.22;;
30382;SDS011;17179;48.022;7.858;2022-08-30T04:06:33;11.13;;;6.30;;
30382;SDS011;17179;48.022;7.858;2022-08-30T04:08:58;7.75;;;6.15;;
30382;SDS011;17179;48.022;7.858;2022-08-30T04:11:24;10.60;;;6.07;;
30382;SDS011;17179;48.022;7.858;2022-08-30T04:13:49;10.60;;;5.93;;
30382;SDS011;17179;48.022;7.858;2022-08-30T04:16:16;10.48;;;5.95;;
30382;SDS011;17179;48.022;7.858;2022-08-30T04:18:44;9.00;;;5.60;;
30382;SDS011;17179;48.022;7.858;2022-08-30T04:21:09;6.55;;;5.85;;
30382;SDS011;17179;48.022;7.858;2022-08-30T04:23:35;8.25;;;5.18;;
30382;SDS011;17179;48.022;7.858;2022-08-30T04:26:00;11.00;;;6.03;;
30382;SDS011;17179;48.022;7.858;2022-08-30T04:28:25;9.18;;;5.90;;
30382;SDS011;17179;48.022;7.858;2022-08-30T04:30:51;7.00;;;5.65;;
30382;SDS011;17179;48.022;7.858;2022-08-30T04:33:16;8.48;;;5.32;;
30382;SDS011;17179;48.022;7.858;2022-08-30T04:35:42;9.68;;;6.53;;
30382;SDS011;17179;48.022;7.858;2022-08-30T04:38:09;6.30;;;5.60;;
30382;SDS011;17179;48.022;7.858;2022-08-30T04:40:37;8.55;;;5.50;;
30382;SDS011;17179;48.022;7.858;2022-08-30T04:43:02;14.18;;;6.32;;
30382;SDS011;17179;48.022;7.858;2022-08-30T04:45:28;7.20;;;5.95;;
30382;SDS011;17179;48.022;7.858;2022-08-30T04:47:54;11.70;;;6.75;;
30382;SDS011;17179;48.022;7.858;2022-08-30T04:50:19;9.90;;;5.95;;
30382;SDS011;17179;48.022;7.858;2022-08-30T04:52:45;6.53;;;5.90;;
30382;SDS011;17179;48.022;7.858;2022-08-30T04:55:11;10.63;;;6.00;;
30382;SDS011;17179;48.022;7.858;2022-08-30T04:57:38;14.02;;;6.20;;
30382;SDS011;17179;48.022;7.858;2022-08-30T05:00:05;8.00;;;5.47;;
30382;SDS011;17179;48.022;7.858;2022-08-30T05:02:35;8.13;;;6.03;;
30382;SDS011;17179;48.022;7.858;2022-08-30T05:05:00;6.82;;;5.50;;
30382;SDS011;17179;48.022;7.858;2022-08-30T05:07:45;11.35;;;5.57;;
30382;SDS011;17179;48.022;7.858;2022-08-30T05:10:10;7.05;;;5.53;;
30382;SDS011;17179;48.022;7.858;2022-08-30T05:12:36;8.95;;;6.20;;
30382;SDS011;17179;48.022;7.858;2022-08-30T05:15:02;8.52;;;6.10;;
30382;SDS011;17179;48.022;7.858;2022-08-30T05:17:27;6.90;;;5.45;;
30382;SDS011;17179;48.022;7.858;2022-08-30T05:19:53;7.03;;;5.72;;
30382;SDS011;17179;48.022;7.858;2022-08-30T05:22:18;6.80;;;5.45;;
30382;SDS011;17179;48.022;7.858;2022-08-30T05:24:43;6.30;;;5.57;;
30382;SDS011;17179;48.022;7.858;2022-08-30T05:27:09;6.72;;;5.35;;
30382;SDS011;17179;48.022;7.858;2022-08-30T05:29:34;10.80;;;6.43;;
30382;SDS011;17179;48.022;7.858;2022-08-30T05:31:59;6.38;;;5.78;;
30382;SDS011;17179;48.022;7.858;2022-08-30T05:34:25;13.68;;;5.93;;
30382;SDS011;17179;48.022;7.858;2022-08-30T05:36:53;10.63;;;5.95;;
30382;SDS011;17179;48.022;7.858;2022-08-30T05:39:18;11.57;;;5.75;;
30382;SDS011;17179;48.022;7.858;2022-08-30T05:41:44;9.65;;;5.72;;
30382;SDS011;17179;48.022;7.858;2022-08-30T05:44:09;12.85;;;5.38;;
30382;SDS011;17179;48.022;7.858;2022-08-30T05:46:35;7.72;;;6.97;;
30382;SDS011;17179;48.022;7.858;2022-08-30T05:49:01;8.38;;;6.95;;
30382;SDS011;17179;48.022;7.858;2022-08-30T05:51:29;7.10;;;5.18;;
30382;SDS011;17179;48.022;7.858;2022-08-30T05:53:57;10.48;;;5.93;;
30382;SDS011;17179;48.022;7.858;2022-08-30T05:56:24;6.28;;;5.60;;
30382;SDS011;17179;48.022;7.858;2022-08-30T05:58:52;9.95;;;5.53;;
30382;SDS011;17179;48.022;7.858;2022-08-30T06:01:29;12.10;;;5.82;;
30382;SDS011;17179;48.022;7.858;2022-08-30T06:03:57;9.77;;;6.20;;
30382;SDS011;17179;48.022;7.858;2022-08-30T06:06:24;7.03;;;6.00;;
30382;SDS011;17179;48.022;7.858;2022-08-30T06:08:51;9.15;;;6.38;;
30382;SDS011;17179;48.022;7.858;2022-08-30T06:11:17;6.60;;;5.95;;
30382;SDS011;17179;48.022;7.858;2022-08-30T06:13:45;7.40;;;6.32;;
30382;SDS011;17179;48.022;7.858;2022-08-30T06:16:12;9.95;;;6.10;;
30382;SDS011;17179;48.022;7.858;2022-08-30T06:18:39;11.38;;;5.97;;
30382;SDS011;17179;48.022;7.858;2022-08-30T06:21:05;8.93;;;5.45;;
30382;SDS011;17179;48.022;7.858;2022-08-30T06:23:31;10.48;;;6.03;;
30382;SDS011;17179;48.022;7.858;2022-08-30T06:26:01;11.93;;;5.70;;
30382;SDS011;17179;48.022;7.858;2022-08-30T06:28:27;12.20;;;6.47;;
30382;SDS011;17179;48.022;7.858;2022-08-30T06:30:53;13.05;;;6.60;;
30382;SDS011;17179;48.022;7.858;2022-08-30T06:33:18;7.18;;;6.45;;
30382;SDS011;17179;48.022;7.858;2022-08-30T06:35:44;11.05;;;6.90;;
30382;SDS011;17179;48.022;7.858;2022-08-30T06:38:09;10.10;;;5.90;;
30382;SDS011;17179;48.022;7.858;2022-08-30T06:40:35;8.23;;;5.93;;
30382;SDS011;17179;48.022;7.858;2022-08-30T06:43:00;10.75;;;6.78;;
30382;SDS011;17179;48.022;7.858;2022-08-30T06:45:25;11.18;;;6.90;;
30382;SDS011;17179;48.022;7.858;2022-08-30T06:47:51;10.15;;;6.63;;
30382;SDS011;17179;48.022;7.858;2022-08-30T06:50:16;8.95;;;6.45;;
30382;SDS011;17179;48.022;7.858;2022-08-30T06:52:42;6.97;;;6.30;;
30382;SDS011;17179;48.022;7.858;2022-08-30T06:55:10;9.40;;;7.15;;
30382;SDS011;17179;48.022;7.858;2022-08-30T06:57:36;11.27;;;7.25;;
30382;SDS011;17179;48.022;7.858;2022-08-30T07:00:03;9.18;;;6.78;;
30382;SDS011;17179;48.022;7.858;2022-08-30T07:02:30;10.80;;;7.78;;
30382;SDS011;17179;48.022;7.858;2022-08-30T07:04:56;12.88;;;7.90;;
30382;SDS011;17179;48.022;7.858;2022-08-30T07:07:21;9.18;;;7.20;;
30382;SDS011;17179;48.022;7.858;2022-08-30T07:09:47;8.40;;;7.53;;
30382;SDS011;17179;48.022;7.858;2022-08-30T07:12:12;10.98;;;7.68;;
30382;SDS011;17179;48.022;7.858;2022-08-30T07:14:39;7.15;;;6.45;;
30382;SDS011;17179;48.022;7.858;2022-08-30T07:17:05;7.85;;;7.10;;
30382;SDS011;17179;48.022;7.858;2022-08-30T07:19:52;7.65;;;6.22;;
30382;SDS011;17179;48.022;7.858;2022-08-30T07:22:18;8.85;;;7.18;;
30382;SDS011;17179;48.022;7.858;2022-08-30T07:24:44;8.13;;;6.80;;
30382;SDS011;17179;48.022;7.858;2022-08-30T07:27:10;11.88;;;7.25;;
30382;SDS011;17179;48.022;7.858;2022-08-30T07:29:35;10.05;;;6.85;;
30382;SDS011;17179;48.022;7.858;2022-08-30T07:32:00;8.70;;;6.65;;
30382;SDS011;17179;48.022;7.858;2022-08-30T07:34:26;7.32;;;6.50;;
30382;SDS011;17179;48.022;7.858;2022-08-30T07:36:51;7.13;;;6.60;;
30382;SDS011;17179;48.022;7.858;2022-08-30T07:39:17;7.30;;;6.10;;
30382;SDS011;17179;48.022;7.858;2022-08-30T07:41:42;7.07;;;6.43;;
30382;SDS011;17179;48.022;7.858;2022-08-30T07:44:08;7.32;;;6.65;;
30382;SDS011;17179;48.022;7.858;2022-08-30T07:46:33;9.20;;;6.60;;
30382;SDS011;17179;48.022;7.858;2022-08-30T07:48:59;8.55;;;6.13;;
30382;SDS011;17179;48.022;7.858;2022-08-30T07:51:25;10.82;;;6.10;;
30382;SDS011;17179;48.022;7.858;2022-08-30T07:53:52;6.60;;;5.88;;
30382;SDS011;17179;48.022;7.858;2022-08-30T07:56:18;7.90;;;5.72;;
30382;SDS011;17179;48.022;7.858;2022-08-30T07:58:45;9.38;;;5.85;;
30382;SDS011;17179;48.022;7.858;2022-08-30T08:01:11;5.95;;;5.50;;
30382;SDS011;17179;48.022;7.858;2022-08-30T08:03:37;6.97;;;5.75;;
30382;SDS011;17179;48.022;7.858;2022-08-30T08:06:05;8.10;;;6.00;;
30382;SDS011;17179;48.022;7.858;2022-08-30T08:08:31;5.88;;;5.35;;
30382;SDS011;17179;48.022;7.858;2022-08-30T08:10:57;7.57;;;5.80;;
30382;SDS011;17179;48.022;7.858;2022-08-30T08:13:29;7.15;;;6.22;;
30382;SDS011;17179;48.022;7.858;2022-08-30T08:15:54;9.65;;;6.03;;
30382;SDS011;17179;48.022;7.858;2022-08-30T08:18:19;7.25;;;6.15;;
30382;SDS011;17179;48.022;7.858;2022-08-30T08:20:45;6.25;;;5.75;;
30382;SDS011;17179;48.022;7.858;2022-08-30T08:23:10;6.82;;;6.13;;
30382;SDS011;17179;48.022;7.858;2022-08-30T08:25:39;10.40;;;5.78;;
30382;SDS011;17179;48.022;7.858;2022-08-30T08:28:05;15.57;;;5.88;;
30382;SDS011;17179;48.022;7.858;2022-08-30T08:30:32;10.88;;;5.68;;
30382;SDS011;17179;48.022;7.858;2022-08-30T08:33:00;5.30;;;4.88;;
30382;SDS011;17179;48.022;7.858;2022-08-30T08:35:25;5.57;;;5.07;;
30382;SDS011;17179;48.022;7.858;2022-08-30T08:37:51;7.00;;;4.78;;
30382;SDS011;17179;48.022;7.858;2022-08-30T08:40:17;5.43;;;4.80;;
30382;SDS011;17179;48.022;7.858;2022-08-30T08:51:02;5.72;;;4.90;;
30382;SDS011;17179;48.022;7.858;2022-08-30T08:53:49;6.38;;;4.95;;
30382;SDS011;17179;48.022;7.858;2022-08-30T08:56:20;5.53;;;4.22;;
30382;SDS011;17179;48.022;7.858;2022-08-30T08:58:53;7.57;;;4.75;;
30382;SDS011;17179;48.022;7.858;2022-08-30T09:01:22;7.57;;;4.85;;
30382;SDS011;17179;48.022;7.858;2022-08-30T09:03:50;11.98;;;4.60;;
30382;SDS011;17179;48.022;7.858;2022-08-30T09:06:21;9.48;;;4.72;;
30382;SDS011;17179;48.022;7.858;2022-08-30T09:08:57;7.00;;;4.32;;
30382;SDS011;17179;48.022;7.858;2022-08-30T09:11:24;6.78;;;5.18;;
30382;SDS011;17179;48.022;7.858;2022-08-30T09:13:52;7.85;;;4.70;;
30382;SDS011;17179;48.022;7.858;2022-08-30T09:22:02;6.80;;;4.53;;
30382;SDS011;17179;48.022;7.858;2022-08-30T09:24:57;6.72;;;5.47;;
30382;SDS011;17179;48.022;7.858;2022-08-30T09:27:33;7.78;;;4.93;;
30382;SDS011;17179;48.022;7.858;2022-08-30T09:30:08;7.32;;;5.15;;
30382;SDS011;17179;48.022;7.858;2022-08-30T09:32:39;5.68;;;4.90;;
30382;SDS011;17179;48.022;7.858;2022-08-30T09:35:17;5.13;;;4.72;;
30382;SDS011;17179;48.022;7.858;2022-08-30T09:37:54;8.32;;;4.97;;
30382;SDS011;17179;48.022;7.858;2022-08-30T09:40:39;6.33;;;4.73;;
30382;SDS011;17179;48.022;7.858;2022-08-30T09:43:18;4.50;;;4.10;;
30382;SDS011;17179;48.022;7.858;2022-08-30T09:46:03;4.97;;;4.47;;
30382;SDS011;17179;48.022;7.858;2022-08-30T09:48:33;5.65;;;5.20;;
30382;SDS011;17179;48.022;7.858;2022-08-30T09:53:46;4.82;;;4.45;;
30382;SDS011;17179;48.022;7.858;2022-08-30T09:56:19;6.70;;;4.55;;
30382;SDS011;17179;48.022;7.858;2022-08-30T09:59:06;5.00;;;4.60;;
30382;SDS011;17179;48.022;7.858;2022-08-30T10:01:44;5.47;;;5.07;;
30382;SDS011;17179;48.022;7.858;2022-08-30T10:04:17;5.10;;;4.70;;
30382;SDS011;17179;48.022;7.858;2022-08-30T10:06:55;6.60;;;5.00;;
30382;SDS011;17179;48.022;7.858;2022-08-30T10:09:50;5.13;;;4.65;;
30382;SDS011;17179;48.022;7.858;2022-08-30T10:12:31;12.25;;;4.60;;
30382;SDS011;17179;48.022;7.858;2022-08-30T10:23:32;6.10;;;4.70;;
30382;SDS011;17179;48.022;7.858;2022-08-30T10:26:09;4.70;;;4.35;;
30382;SDS011;17179;48.022;7.858;2022-08-30T10:28:41;4.88;;;3.95;;
30382;SDS011;17179;48.022;7.858;2022-08-30T10:31:13;4.93;;;4.53;;
30382;SDS011;17179;48.022;7.858;2022-08-30T10:33:51;6.63;;;4.07;;
30382;SDS011;17179;48.022;7.858;2022-08-30T10:36:22;7.82;;;3.90;;
30382;SDS011;17179;48.022;7.858;2022-08-30T10:39:09;4.80;;;4.25;;
30382;SDS011;17179;48.022;7.858;2022-08-30T10:41:43;5.95;;;4.57;;
30382;SDS011;17179;48.022;7.858;2022-08-30T10:44:27;5.28;;;4.55;;
30382;SDS011;17179;48.022;7.858;2022-08-30T10:49:51;5.22;;;4.72;;
30382;SDS011;17179;48.022;7.858;2022-08-30T10:52:40;4.65;;;4.35;;
30382;SDS011;17179;48.022;7.858;2022-08-30T10:55:25;4.90;;;4.50;;
30382;SDS011;17179;48.022;7.858;2022-08-30T10:57:57;5.68;;;4.07;;
30382;SDS011;17179;48.022;7.858;2022-08-30T11:14:43;4.35;;;4.00;;
30382;SDS011;17179;48.022;7.858;2022-08-30T11:17:23;3.90;;;3.60;;
30382;SDS011;17179;48.022;7.858;2022-08-30T11:19:55;3.75;;;3.33;;
30382;SDS011;17179;48.022;7.858;2022-08-30T11:22:30;4.18;;;3.88;;
30382;SDS011;17179;48.022;7.858;2022-08-30T11:27:50;5.50;;;4.40;;
30382;SDS011;17179;48.022;7.858;2022-08-30T11:35:44;3.75;;;3.45;;
30382;SDS011;17179;48.022;7.858;2022-08-30T11:40:45;4.75;;;3.58;;
30382;SDS011;17179;48.022;7.858;2022-08-30T11:48:52;4.10;;;3.58;;
30382;SDS011;17179;48.022;7.858;2022-08-30T12:05:44;4.18;;;3.65;;
30382;SDS011;17179;48.022;7.858;2022-08-30T12:10:52;4.75;;;4.35;;
30382;SDS011;17179;48.022;7.858;2022-08-30T12:18:44;8.23;;;3.78;;
30382;SDS011;17179;48.022;7.858;2022-08-30T12:26:48;3.75;;;3.35;;
30382;SDS011;17179;48.022;7.858;2022-08-30T12:29:17;4.22;;;3.85;;
30382;SDS011;17179;48.022;7.858;2022-08-30T12:34:22;3.63;;;3.33;;
30382;SDS011;17179;48.022;7.858;2022-08-30T12:36:58;3.75;;;3.40;;
30382;SDS011;17179;48.022;7.858;2022-08-30T12:42:09;6.97;;;3.53;;
30382;SDS011;17179;48.022;7.858;2022-08-30T12:44:42;5.50;;;4.00;;
30382;SDS011;17179;48.022;7.858;2022-08-30T12:47:09;4.93;;;3.75;;
30382;SDS011;17179;48.022;7.858;2022-08-30T12:49:38;6.10;;;4.03;;
30382;SDS011;17179;48.022;7.858;2022-08-30T12:54:55;4.03;;;3.65;;
30382;SDS011;17179;48.022;7.858;2022-08-30T12:57:43;4.53;;;4.13;;
30382;SDS011;17179;48.022;7.858;2022-08-30T13:00:29;5.13;;;3.72;;
30382;SDS011;17179;48.022;7.858;2022-08-30T13:02:59;5.88;;;4.10;;
30382;SDS011;17179;48.022;7.858;2022-08-30T13:08:16;7.45;;;4.22;;
30382;SDS011;17179;48.022;7.858;2022-08-30T13:11:02;3.63;;;3.30;;
30382;SDS011;17179;48.022;7.858;2022-08-30T13:13:40;4.10;;;3.80;;
30382;SDS011;17179;48.022;7.858;2022-08-30T13:16:10;5.75;;;4.93;;
30382;SDS011;17179;48.022;7.858;2022-08-30T13:21:50;4.90;;;3.70;;
30382;SDS011;17179;48.022;7.858;2022-08-30T13:24:16;4.20;;;3.80;;
30382;SDS011;17179;48.022;7.858;2022-08-30T13:26:42;4.95;;;4.45;;
30382;SDS011;17179;48.022;7.858;2022-08-30T13:29:13;8.52;;;4.00;;
30382;SDS011;17179;48.022;7.858;2022-08-30T13:31:40;4.35;;;4.05;;
30382;SDS011;17179;48.022;7.858;2022-08-30T13:34:05;7.22;;;3.78;;
30382;SDS011;17179;48.022;7.858;2022-08-30T13:36:32;5.75;;;3.75;;
30382;SDS011;17179;48.022;7.858;2022-08-30T13:38:59;4.05;;;3.78;;
30382;SDS011;17179;48.022;7.858;2022-08-30T13:41:25;7.03;;;3.63;;
30382;SDS011;17179;48.022;7.858;2022-08-30T13:43:51;8.32;;;3.65;;
30382;SDS011;17179;48.022;7.858;2022-08-30T13:46:17;3.85;;;3.55;;
30382;SDS011;17179;48.022;7.858;2022-08-30T13:48:45;10.00;;;4.32;;
30382;SDS011;17179;48.022;7.858;2022-08-30T13:51:10;3.70;;;3.50;;
30382;SDS011;17179;48.022;7.858;2022-08-30T13:53:36;4.03;;;3.63;;
30382;SDS011;17179;48.022;7.858;2022-08-30T13:56:02;4.50;;;4.07;;
30382;SDS011;17179;48.022;7.858;2022-08-30T13:58:28;3.95;;;3.22;;
30382;SDS011;17179;48.022;7.858;2022-08-30T14:00:54;6.03;;;3.63;;
30382;SDS011;17179;48.022;7.858;2022-08-30T14:03:20;4.07;;;3.53;;
30382;SDS011;17179;48.022;7.858;2022-08-30T14:05:45;3.70;;;3.40;;
30382;SDS011;17179;48.022;7.858;2022-08-30T14:08:12;4.53;;;3.83;;
30382;SDS011;17179;48.022;7.858;2022-08-30T14:10:39;7.57;;;4.13;;
30382;SDS011;17179;48.022;7.858;2022-08-30T14:13:05;9.45;;;3.95;;
30382;SDS011;17179;48.022;7.858;2022-08-30T14:15:31;6.03;;;3.35;;
30382;SDS011;17179;48.022;7.858;2022-08-30T14:17:57;3.92;;;3.72;;
30382;SDS011;17179;48.022;7.858;2022-08-30T14:20:22;3.90;;;3.60;;
30382;SDS011;17179;48.022;7.858;2022-08-30T14:22:48;3.33;;;3.22;;
30382;SDS011;17179;48.022;7.858;2022-08-30T14:25:13;3.95;;;3.65;;
30382;SDS011;17179;48.022;7.858;2022-08-30T14:27:39;4.05;;;3.75;;
30382;SDS011;17179;48.022;7.858;2022-08-30T14:30:04;6.32;;;3.35;;
30382;SDS011;17179;48.022;7.858;2022-08-30T14:32:31;3.55;;;3.25;;
30382;SDS011;17179;48.022;7.858;2022-08-30T14:34:56;3.50;;;3.00;;
30382;SDS011;17179;48.022;7.858;2022-08-30T14:37:22;7.93;;;3.45;;
30382;SDS011;17179;48.022;7.858;2022-08-30T14:39:47;4.78;;;3.17;;
30382;SDS011;17179;48.022;7.858;2022-08-30T14:42:13;5.15;;;3.92;;
30382;SDS011;17179;48.022;7.858;2022-08-30T14:44:38;3.90;;;3.60;;
30382;SDS011;17179;48.022;7.858;2022-08-30T14:47:04;3.42;;;3.22;;
30382;SDS011;17179;48.022;7.858;2022-08-30T14:49:29;3.83;;;3.45;;
30382;SDS011;17179;48.022;7.858;2022-08-30T14:51:55;6.15;;;3.67;;
30382;SDS011;17179;48.022;7.858;2022-08-30T14:54:22;5.93;;;3.58;;
30382;SDS011;17179;48.022;7.858;2022-08-30T14:56:48;3.20;;;3.00;;
30382;SDS011;17179;48.022;7.858;2022-08-30T14:59:14;5.43;;;3.70;;
30382;SDS011;17179;48.022;7.858;2022-08-30T15:01:40;4.18;;;3.88;;
30382;SDS011;17179;48.022;7.858;2022-08-30T15:04:07;4.60;;;3.63;;
30382;SDS011;17179;48.022;7.858;2022-08-30T15:06:34;3.75;;;3.10;;
30382;SDS011;17179;48.022;7.858;2022-08-30T15:09:00;4.00;;;3.60;;
30382;SDS011;17179;48.022;7.858;2022-08-30T15:11:26;4.22;;;3.83;;
30382;SDS011;17179;48.022;7.858;2022-08-30T15:13:52;4.40;;;4.05;;
30382;SDS011;17179;48.022;7.858;2022-08-30T15:16:22;3.90;;;3.67;;
30382;SDS011;17179;48.022;7.858;2022-08-30T15:18:53;4.13;;;3.70;;
30382;SDS011;17179;48.022;7.858;2022-08-30T15:21:22;6.30;;;3.80;;
30382;SDS011;17179;48.022;7.858;2022-08-30T15:23:49;3.75;;;3.50;;
30382;SDS011;17179;48.022;7.858;2022-08-30T15:26:14;3.67;;;3.38;;
30382;SDS011;17179;48.022;7.858;2022-08-30T15:28:40;4.30;;;3.30;;
30382;SDS011;17179;48.022;7.858;2022-08-30T15:31:05;4.90;;;3.55;;
30382;SDS011;17179;48.022;7.858;2022-08-30T15:33:31;3.47;;;3.10;;
30382;SDS011;17179;48.022;7.858;2022-08-30T15:35:58;6.32;;;4.03;;
30382;SDS011;17179;48.022;7.858;2022-08-30T15:38:25;3.97;;;3.67;;
30382;SDS011;17179;48.022;7.858;2022-08-30T15:40:51;5.72;;;3.25;;
30382;SDS011;17179;48.022;7.858;2022-08-30T15:43:17;5.97;;;3.70;;
30382;SDS011;17179;48.022;7.858;2022-08-30T15:45:42;10.05;;;4.05;;
30382;SDS011;17179;48.022;7.858;2022-08-30T15:48:07;8.85;;;5.15;;
30382;SDS011;17179;48.022;7.858;2022-08-30T15:50:33;5.68;;;3.72;;
30382;SDS011;17179;48.022;7.858;2022-08-30T15:52:59;4.20;;;3.90;;
30382;SDS011;17179;48.022;7.858;2022-08-30T15:55:26;3.80;;;3.38;;
30382;SDS011;17179;48.022;7.858;2022-08-30T15:57:51;3.88;;;3.60;;
30382;SDS011;17179;48.022;7.858;2022-08-30T16:00:17;5.45;;;4.10;;
30382;SDS011;17179;48.022;7.858;2022-08-30T16:02:42;7.10;;;3.60;;
30382;SDS011;17179;48.022;7.858;2022-08-30T16:05:12;5.13;;;3.97;;
30382;SDS011;17179;48.022;7.858;2022-08-30T16:07:37;4.57;;;3.28;;
30382;SDS011;17179;48.022;7.858;2022-08-30T16:10:03;5.97;;;3.97;;
30382;SDS011;17179;48.022;7.858;2022-08-30T16:12:29;4.57;;;3.15;;
30382;SDS011;17179;48.022;7.858;2022-08-30T16:14:54;4.03;;;3.72;;
30382;SDS011;17179;48.022;7.858;2022-08-30T16:17:19;6.70;;;3.38;;
30382;SDS011;17179;48.022;7.858;2022-08-30T16:19:45;3.65;;;3.30;;
30382;SDS011;17179;48.022;7.858;2022-08-30T16:22:10;7.97;;;3.63;;
30382;SDS011;17179;48.022;7.858;2022-08-30T16:24:35;12.15;;;3.95;;
30382;SDS011;17179;48.022;7.858;2022-08-30T16:27:01;4.20;;;3.80;;
30382;SDS011;17179;48.022;7.858;2022-08-30T16:29:26;5.65;;;4.10;;
30382;SDS011;17179;48.022;7.858;2022-08-30T16:31:52;4.15;;;3.90;;